createdAt,value
2023-04-20T00:00:17.100Z,6.09
2023-04-20T00:03:04.550Z,6.14
2023-04-20T00:05:33.033Z,6.11
2023-04-20T00:08:02.197Z,6.21
2023-04-20T00:10:29.865Z,6.24
2023-04-20T00:12:57.254Z,6.46
2023-04-20T00:15:24.970Z,6.55
2023-04-20T00:17:52.744Z,6.61
2023-04-20T00:20:20.750Z,6.69
2023-04-20T00:22:48.076Z,6.53
2023-04-20T00:25:17.594Z,6.44
2023-04-20T00:27:45.236Z,6.40
2023-04-20T00:30:14.354Z,6.31
2023-04-20T00:32:41.732Z,6.35
2023-04-20T00:35:10.126Z,6.36
2023-04-20T00:37:37.517Z,6.55
2023-04-20T00:40:06.701Z,6.76
2023-04-20T00:42:35.499Z,6.72
2023-04-20T00:45:03.404Z,6.89
2023-04-20T00:47:30.796Z,6.91
2023-04-20T00:49:58.784Z,6.55
2023-04-20T00:52:26.062Z,6.06
2023-04-20T00:54:53.734Z,5.89
2023-04-20T00:57:22.346Z,5.91
2023-04-20T00:59:51.742Z,6.06
2023-04-20T01:02:19.298Z,6.18
2023-04-20T01:04:47.621Z,6.41
2023-04-20T01:07:15.094Z,6.50
2023-04-20T01:09:42.599Z,6.44
2023-04-20T01:12:10.508Z,6.58
2023-04-20T01:14:38.191Z,6.55
2023-04-20T01:17:07.709Z,6.83
2023-04-20T01:19:35.458Z,6.73
2023-04-20T01:22:02.714Z,6.64
2023-04-20T01:24:31.820Z,6.60
2023-04-20T01:26:59.275Z,6.58
2023-04-20T01:29:27.749Z,6.56
2023-04-20T01:31:55.219Z,6.63
2023-04-20T01:34:22.854Z,6.68
2023-04-20T01:36:50.293Z,6.73
2023-04-20T01:39:18.762Z,6.71
2023-04-20T01:41:47.901Z,6.65
2023-04-20T01:44:15.824Z,6.65
2023-04-20T01:46:43.178Z,6.61
2023-04-20T01:49:10.899Z,6.76
2023-04-20T01:51:38.067Z,6.85
2023-04-20T01:54:05.820Z,6.86
2023-04-20T01:56:33.101Z,6.94
2023-04-20T01:59:02.253Z,7.01
2023-04-20T02:01:29.548Z,6.94
2023-04-20T02:03:58.555Z,6.75
2023-04-20T02:06:26.028Z,6.67
2023-04-20T02:08:53.941Z,6.62
2023-04-20T02:11:21.166Z,6.54
2023-04-20T02:13:49.068Z,6.46
2023-04-20T02:16:18.191Z,6.52
2023-04-20T02:18:45.755Z,6.58
2023-04-20T02:21:13.098Z,6.85
2023-04-20T02:23:40.960Z,6.99
2023-04-20T02:26:08.108Z,6.99
2023-04-20T02:28:35.986Z,6.99
2023-04-20T02:31:03.474Z,6.90
2023-04-20T02:33:32.748Z,6.95
2023-04-20T02:36:00.110Z,6.91
2023-04-20T02:38:27.623Z,6.97
2023-04-20T02:40:54.941Z,7.11
2023-04-20T02:43:22.628Z,7.12
2023-04-20T02:45:49.913Z,7.08
2023-04-20T02:48:17.493Z,7.03
2023-04-20T02:50:46.075Z,6.93
2023-04-20T02:53:13.559Z,6.90
2023-04-20T02:55:40.815Z,7.08
2023-04-20T02:58:08.213Z,7.17
2023-04-20T03:00:35.471Z,7.04
2023-04-20T03:03:03.694Z,6.95
2023-04-20T03:05:30.991Z,6.94
2023-04-20T03:08:00.179Z,7.00
2023-04-20T03:10:27.347Z,6.98
2023-04-20T03:12:54.857Z,6.95
2023-04-20T03:15:22.052Z,6.98
2023-04-20T03:17:49.550Z,6.97
2023-04-20T03:20:16.837Z,6.97
2023-04-20T03:22:44.344Z,6.91
2023-04-20T03:25:13.056Z,6.88
2023-04-20T03:27:40.574Z,6.88
2023-04-20T03:30:09.184Z,6.82
2023-04-20T03:32:37.013Z,6.76
2023-04-20T03:35:07.784Z,6.85
2023-04-20T03:37:36.123Z,6.94
2023-04-20T03:40:03.364Z,7.00
2023-04-20T03:42:32.899Z,7.25
2023-04-20T03:45:00.150Z,7.23
2023-04-20T03:47:27.714Z,7.15
2023-04-20T03:49:55.087Z,6.89
2023-04-20T03:52:22.758Z,6.84
2023-04-20T03:54:50.046Z,6.81
2023-04-20T03:57:17.658Z,6.99
2023-04-20T03:59:46.319Z,6.93
2023-04-20T04:02:13.970Z,6.99
2023-04-20T04:04:41.840Z,7.04
2023-04-20T04:07:09.780Z,7.06
2023-04-20T04:09:37.054Z,7.15
2023-04-20T04:12:05.402Z,7.17
2023-04-20T04:14:32.861Z,7.17
2023-04-20T04:17:02.057Z,7.15
2023-04-20T04:19:29.315Z,7.31
2023-04-20T04:21:57.125Z,7.14
2023-04-20T04:24:24.415Z,7.16
2023-04-20T04:26:51.949Z,7.11
2023-04-20T04:29:19.312Z,7.02
2023-04-20T04:31:47.024Z,6.96
2023-04-20T04:34:15.919Z,6.92
2023-04-20T04:36:43.456Z,6.81
2023-04-20T04:39:10.756Z,6.68
2023-04-20T04:41:38.264Z,6.85
2023-04-20T04:44:05.521Z,6.94
2023-04-20T04:46:33.207Z,7.15
2023-04-20T04:49:00.539Z,7.14
2023-04-20T04:51:29.564Z,7.14
2023-04-20T04:53:56.964Z,7.18
2023-04-20T04:56:24.547Z,7.39
2023-04-20T04:58:51.809Z,7.39
2023-04-20T05:01:19.347Z,7.35
2023-04-20T05:03:46.838Z,7.29
2023-04-20T05:06:14.433Z,7.44
2023-04-20T05:08:44.006Z,7.33
2023-04-20T05:11:11.661Z,7.32
2023-04-20T05:13:38.984Z,7.37
2023-04-20T05:18:34.439Z,7.59
2023-04-20T05:21:02.112Z,7.73
2023-04-20T05:23:29.274Z,7.72
2023-04-20T05:25:58.293Z,7.72
2023-04-20T05:28:26.032Z,7.85
2023-04-20T05:30:54.056Z,7.76
2023-04-20T05:33:21.607Z,7.75
2023-04-20T05:35:49.610Z,7.75
2023-04-20T05:38:17.052Z,7.77
2023-04-20T05:40:44.641Z,7.90
2023-04-20T05:43:13.328Z,7.81
2023-04-20T05:45:41.131Z,7.79
2023-04-20T05:48:08.466Z,7.77
2023-04-20T05:50:36.136Z,7.75
2023-04-20T05:53:03.357Z,7.80
2023-04-20T05:55:30.815Z,7.81
2023-04-20T05:57:58.059Z,7.74
2023-04-20T06:00:27.310Z,7.57
2023-04-20T06:02:54.672Z,7.66
2023-04-20T06:05:22.849Z,7.76
2023-04-20T06:07:50.099Z,7.86
2023-04-20T06:10:17.708Z,7.91
2023-04-20T06:12:44.957Z,7.89
2023-04-20T06:15:12.408Z,7.97
2023-04-20T06:17:41.533Z,8.09
2023-04-20T06:20:10.634Z,8.12
2023-04-20T06:22:41.902Z,8.08
2023-04-20T06:25:10.423Z,8.09
2023-04-20T06:27:37.675Z,8.21
2023-04-20T06:30:06.345Z,8.43
2023-04-20T06:32:36.710Z,8.60
2023-04-20T06:35:07.079Z,8.63
2023-04-20T06:37:35.406Z,8.53
2023-04-20T06:40:03.343Z,8.56
2023-04-20T06:42:30.616Z,8.73
2023-04-20T06:44:58.270Z,8.74
2023-04-20T06:47:25.573Z,8.78
2023-04-20T06:49:53.096Z,8.75
2023-04-20T06:52:21.807Z,8.68
2023-04-20T06:54:49.547Z,8.59
2023-04-20T06:57:16.996Z,8.59
2023-04-20T06:59:44.702Z,8.60
2023-04-20T07:02:11.954Z,8.66
2023-04-20T07:04:40.803Z,8.70
2023-04-20T07:07:08.103Z,8.92
2023-04-20T07:09:37.200Z,9.04
2023-04-20T07:12:04.645Z,9.05
2023-04-20T07:14:32.328Z,9.15
2023-04-20T07:16:59.517Z,9.13
2023-04-20T07:19:27.513Z,9.07
2023-04-20T07:21:55.040Z,9.04
2023-04-20T07:24:22.685Z,9.09
2023-04-20T07:26:51.452Z,9.26
2023-04-20T07:29:19.329Z,9.33
2023-04-20T07:31:46.851Z,9.26
2023-04-20T07:34:14.433Z,9.54
2023-04-20T07:36:41.666Z,9.66
2023-04-20T07:39:09.348Z,9.88
2023-04-20T07:41:36.992Z,9.93
2023-04-20T07:44:06.157Z,9.96
2023-04-20T07:46:33.344Z,10.11
2023-04-20T07:49:01.103Z,10.19
2023-04-20T07:51:28.359Z,10.15
2023-04-20T07:53:56.302Z,10.22
2023-04-20T07:56:23.482Z,10.20
2023-04-20T07:58:51.224Z,10.29
2023-04-20T08:01:24.113Z,10.57
2023-04-20T08:04:10.670Z,10.62
2023-04-20T08:06:39.740Z,10.68
2023-04-20T08:09:07.368Z,10.79
2023-04-20T08:11:35.118Z,10.83
2023-04-20T08:14:02.693Z,11.13
2023-04-20T08:16:31.485Z,11.03
2023-04-20T08:18:59.201Z,10.49
2023-04-20T08:21:26.451Z,9.96
2023-04-20T08:23:54.051Z,10.11
2023-04-20T08:26:21.267Z,10.20
2023-04-20T08:28:48.913Z,10.48
2023-04-20T08:31:16.153Z,10.63
2023-04-20T08:33:45.452Z,10.64
2023-04-20T08:36:12.881Z,10.63
2023-04-20T08:38:40.633Z,10.64
2023-04-20T08:41:08.113Z,10.57
2023-04-20T08:43:36.402Z,10.99
2023-04-20T08:46:03.571Z,10.93
2023-04-20T08:48:35.433Z,10.79
2023-04-20T08:51:04.873Z,10.75
2023-04-20T08:53:33.096Z,10.84
2023-04-20T08:56:00.696Z,10.76
2023-04-20T08:58:31.120Z,10.32
2023-04-20T09:00:58.627Z,10.48
2023-04-20T09:03:33.303Z,10.52
2023-04-20T09:06:00.845Z,10.46
2023-04-20T09:08:37.379Z,10.16
2023-04-20T09:11:04.756Z,10.47
2023-04-20T09:13:32.454Z,10.53
2023-04-20T09:16:10.441Z,10.65
2023-04-20T09:18:38.850Z,10.94
2023-04-20T09:21:09.879Z,11.33
2023-04-20T09:23:38.859Z,11.29
2023-04-20T09:26:06.203Z,11.49
2023-04-20T09:28:37.731Z,11.71
2023-04-20T09:31:05.316Z,11.47
2023-04-20T09:33:32.894Z,11.43
2023-04-20T09:36:04.073Z,11.49
2023-04-20T09:38:31.850Z,11.51
2023-04-20T09:41:01.596Z,11.29
2023-04-20T09:43:30.181Z,10.96
2023-04-20T09:45:58.134Z,10.91
2023-04-20T09:48:25.844Z,11.27
2023-04-20T09:50:54.224Z,10.63
2023-04-20T09:53:21.768Z,10.83
2023-04-20T09:55:49.835Z,11.22
2023-04-20T09:58:20.550Z,11.49
2023-04-20T10:00:48.191Z,11.66
2023-04-20T10:03:18.355Z,11.64
2023-04-20T10:05:45.799Z,11.93
2023-04-20T10:08:13.512Z,12.40
2023-04-20T10:10:45.282Z,12.70
2023-04-20T10:13:12.930Z,12.82
2023-04-20T10:15:42.561Z,13.31
2023-04-20T10:18:21.138Z,12.64
2023-04-20T10:20:48.906Z,12.30
2023-04-20T10:23:16.856Z,12.37
2023-04-20T10:25:55.215Z,12.74
2023-04-20T10:28:22.889Z,12.64
2023-04-20T10:30:52.985Z,12.87
2023-04-20T10:33:20.571Z,13.33
2023-04-20T10:35:49.335Z,13.39
2023-04-20T10:38:28.391Z,13.85
2023-04-20T10:40:55.716Z,14.07
2023-04-20T10:43:23.441Z,14.53
2023-04-20T10:45:52.403Z,13.96
2023-04-20T10:48:20.333Z,13.88
2023-04-20T10:50:47.847Z,14.26
2023-04-20T10:53:20.286Z,14.29
2023-04-20T10:55:48.120Z,14.04
2023-04-20T10:58:22.304Z,14.31
2023-04-20T11:00:59.684Z,15.04
2023-04-20T11:03:28.855Z,14.89
2023-04-20T11:05:58.341Z,14.61
2023-04-20T11:08:36.932Z,15.31
2023-04-20T11:11:04.268Z,15.83
2023-04-20T11:13:32.099Z,15.94
2023-04-20T11:16:09.526Z,15.94
2023-04-20T11:18:37.198Z,15.76
2023-04-20T11:21:04.693Z,16.08
2023-04-20T11:23:38.283Z,15.49
2023-04-20T11:26:05.829Z,15.84
2023-04-20T11:28:33.709Z,15.44
2023-04-20T11:31:02.781Z,15.63
2023-04-20T11:33:32.390Z,15.70
2023-04-20T11:36:00.775Z,15.58
2023-04-20T11:38:30.042Z,15.42
2023-04-20T11:40:58.032Z,15.60
2023-04-20T11:43:25.640Z,15.68
2023-04-20T11:45:53.275Z,16.11
2023-04-20T11:48:22.339Z,16.50
2023-04-20T11:50:49.798Z,16.98
2023-04-20T11:53:17.493Z,17.42
2023-04-20T11:55:44.780Z,18.05
2023-04-20T11:58:12.428Z,18.03
2023-04-20T12:00:39.898Z,17.69
2023-04-20T12:03:07.798Z,17.02
2023-04-20T12:05:36.747Z,16.71
2023-04-20T12:08:04.928Z,16.30
2023-04-20T12:10:32.414Z,16.46
2023-04-20T12:13:00.217Z,17.03
2023-04-20T12:15:27.604Z,17.43
2023-04-20T12:17:55.376Z,17.04
2023-04-20T12:20:22.937Z,17.06
2023-04-20T12:22:52.055Z,17.09
2023-04-20T12:25:19.516Z,16.34
2023-04-20T12:27:48.219Z,16.36
2023-04-20T12:30:17.243Z,16.65
2023-04-20T12:32:45.018Z,16.42
2023-04-20T12:35:12.387Z,16.95
2023-04-20T12:37:40.302Z,17.19
2023-04-20T12:40:09.956Z,17.04
2023-04-20T12:42:37.668Z,16.34
2023-04-20T12:45:05.784Z,15.94
2023-04-20T12:47:33.562Z,16.31
2023-04-20T12:50:00.867Z,15.98
2023-04-20T12:52:28.688Z,16.22
2023-04-20T12:54:57.823Z,16.52
2023-04-20T12:57:27.094Z,15.99
2023-04-20T12:59:54.416Z,16.24
2023-04-20T13:02:22.284Z,16.57
2023-04-20T13:04:49.784Z,16.51
2023-04-20T13:07:17.616Z,16.92
2023-04-20T13:09:44.987Z,17.27
2023-04-20T13:12:13.225Z,17.31
2023-04-20T13:14:41.910Z,17.10
2023-04-20T13:17:09.697Z,17.33
2023-04-20T13:19:37.057Z,17.75
2023-04-20T13:22:04.973Z,17.93
2023-04-20T13:24:32.534Z,17.86
2023-04-20T13:27:00.315Z,17.68
2023-04-20T13:29:28.067Z,17.00
2023-04-20T13:31:57.744Z,16.86
2023-04-20T13:34:25.053Z,16.98
2023-04-20T13:36:52.954Z,16.56
2023-04-20T13:39:20.649Z,16.73
2023-04-20T13:41:48.745Z,17.01
2023-04-20T13:44:16.527Z,16.70
2023-04-20T13:46:45.473Z,16.68
2023-04-20T13:49:14.176Z,16.30
2023-04-20T13:51:42.276Z,16.83
2023-04-20T13:54:09.742Z,17.16
2023-04-20T13:56:37.497Z,17.56
2023-04-20T13:59:05.050Z,18.05
2023-04-20T14:01:32.781Z,18.49
2023-04-20T14:04:00.590Z,18.77
2023-04-20T14:06:29.977Z,18.82
2023-04-20T14:08:57.490Z,18.36
2023-04-20T14:11:25.308Z,17.73
2023-04-20T14:13:52.753Z,17.39
2023-04-20T14:16:20.479Z,17.41
2023-04-20T14:18:47.836Z,17.67
2023-04-20T14:21:15.484Z,17.44
2023-04-20T14:23:44.214Z,16.88
2023-04-20T14:26:11.950Z,17.05
2023-04-20T14:28:39.386Z,17.18
2023-04-20T14:31:07.326Z,17.11
2023-04-20T14:33:34.577Z,17.34
2023-04-20T14:36:02.352Z,17.30
2023-04-20T14:38:29.855Z,16.73
2023-04-20T14:40:59.282Z,16.69
2023-04-20T14:43:26.622Z,16.84
2023-04-20T14:45:54.366Z,16.97
2023-04-20T14:48:21.972Z,17.30
2023-04-20T14:50:49.666Z,17.19
2023-04-20T14:53:17.009Z,16.75
2023-04-20T14:55:44.743Z,16.86
2023-04-20T14:58:16.990Z,16.66
2023-04-20T15:00:45.018Z,16.60
2023-04-20T15:03:12.823Z,16.66
2023-04-20T15:05:40.855Z,16.57
2023-04-20T15:08:08.375Z,16.34
2023-04-20T15:10:37.954Z,16.07
2023-04-20T15:13:06.577Z,16.10
2023-04-20T15:15:47.756Z,16.30
2023-04-20T15:18:15.969Z,16.91
2023-04-20T15:20:43.811Z,17.13
2023-04-20T15:23:11.061Z,17.42
2023-04-20T15:25:38.938Z,17.49
2023-04-20T15:28:06.276Z,17.57
2023-04-20T15:30:35.890Z,17.89
2023-04-20T15:33:04.708Z,17.91
2023-04-20T15:35:33.403Z,17.25
2023-04-20T15:38:00.796Z,16.85
2023-04-20T15:40:28.639Z,16.87
2023-04-20T15:42:55.973Z,16.77
2023-04-20T15:45:23.978Z,17.08
2023-04-20T15:47:52.745Z,17.07
2023-04-20T15:50:20.597Z,17.09
2023-04-20T15:52:48.178Z,17.12
2023-04-20T15:55:16.101Z,17.10
2023-04-20T15:57:44.485Z,17.15
2023-04-20T16:00:13.832Z,17.05
2023-04-20T16:02:41.511Z,16.99
2023-04-20T16:05:11.259Z,16.98
2023-04-20T16:07:38.786Z,17.05
2023-04-20T16:10:08.109Z,16.86
2023-04-20T16:12:35.421Z,16.75
2023-04-20T16:15:03.609Z,16.57
2023-04-20T16:17:31.051Z,16.46
2023-04-20T16:19:58.890Z,16.57
2023-04-20T16:22:27.949Z,16.82
2023-04-20T16:24:55.682Z,17.14
2023-04-20T16:27:23.835Z,17.06
2023-04-20T16:29:51.645Z,16.98
2023-04-20T16:32:19.067Z,16.57
2023-04-20T16:34:46.878Z,16.50
2023-04-20T16:37:14.341Z,16.18
2023-04-20T16:39:43.847Z,16.01
2023-04-20T16:42:11.352Z,16.17
2023-04-20T16:44:41.569Z,16.24
2023-04-20T16:47:09.438Z,16.29
2023-04-20T16:49:37.195Z,16.38
2023-04-20T16:52:04.633Z,16.23
2023-04-20T16:54:32.464Z,16.23
2023-04-20T16:57:01.403Z,16.32
2023-04-20T16:59:29.159Z,16.15
2023-04-20T17:01:56.602Z,16.45
2023-04-20T17:04:24.368Z,16.56
2023-04-20T17:06:51.847Z,16.42
2023-04-20T17:09:19.776Z,16.27
2023-04-20T17:11:47.112Z,16.22
2023-04-20T17:14:16.325Z,16.13
2023-04-20T17:16:43.696Z,16.36
2023-04-20T17:19:11.503Z,16.43
2023-04-20T17:21:38.766Z,16.44
2023-04-20T17:24:06.763Z,16.37
2023-04-20T17:26:34.103Z,16.42
2023-04-20T17:29:01.839Z,16.57
2023-04-20T17:31:31.063Z,16.60
2023-04-20T17:33:58.988Z,16.51
2023-04-20T17:36:26.418Z,16.63
2023-04-20T17:38:54.376Z,16.36
2023-04-20T17:41:21.754Z,16.42
2023-04-20T17:43:51.045Z,16.50
2023-04-20T17:46:18.560Z,16.57
2023-04-20T17:48:47.711Z,16.56
2023-04-20T17:51:15.191Z,16.58
2023-04-20T17:53:42.984Z,16.48
2023-04-20T17:56:10.369Z,16.46
2023-04-20T17:58:38.198Z,16.30
2023-04-20T18:01:05.512Z,16.24
2023-04-20T18:03:33.509Z,16.21
2023-04-20T18:06:02.820Z,16.18
2023-04-20T18:08:30.643Z,16.00
2023-04-20T18:10:57.978Z,16.07
2023-04-20T18:13:25.932Z,16.19
2023-04-20T18:15:53.430Z,16.07
2023-04-20T18:18:21.317Z,15.84
2023-04-20T18:20:49.050Z,15.77
2023-04-20T18:23:18.360Z,15.70
2023-04-20T18:25:45.702Z,15.67
2023-04-20T18:28:13.600Z,15.70
2023-04-20T18:30:41.028Z,15.70
2023-04-20T18:33:08.871Z,15.61
2023-04-20T18:35:36.304Z,15.45
2023-04-20T18:38:04.220Z,15.30
2023-04-20T18:40:33.118Z,15.36
2023-04-20T18:43:00.971Z,15.36
2023-04-20T18:45:29.330Z,15.18
2023-04-20T18:47:57.448Z,14.81
2023-04-20T18:50:24.846Z,14.64
2023-04-20T18:52:52.755Z,14.59
2023-04-20T18:55:20.385Z,14.65
2023-04-20T18:57:49.800Z,14.61
2023-04-20T19:00:17.642Z,14.65
2023-04-20T19:02:45.583Z,14.62
2023-04-20T19:05:13.176Z,14.64
2023-04-20T19:07:41.007Z,14.66
2023-04-20T19:10:09.438Z,14.59
2023-04-20T19:12:37.249Z,14.25
2023-04-20T19:15:06.873Z,14.02
2023-04-20T19:17:35.497Z,13.99
2023-04-20T19:20:03.486Z,13.92
2023-04-20T19:22:31.431Z,13.77
2023-04-20T19:24:58.871Z,13.84
2023-04-20T19:27:27.036Z,14.02
2023-04-20T19:29:54.381Z,14.05
2023-04-20T19:32:23.950Z,14.04
2023-04-20T19:34:51.602Z,14.03
2023-04-20T19:37:19.405Z,13.91
2023-04-20T19:39:46.809Z,13.81
2023-04-20T19:42:14.691Z,13.62
2023-04-20T19:44:42.227Z,13.48
2023-04-20T19:47:10.059Z,13.37
2023-04-20T19:49:38.889Z,13.16
2023-04-20T19:52:07.032Z,13.12
2023-04-20T19:54:34.499Z,13.14
2023-04-20T19:57:02.455Z,13.14
2023-04-20T19:59:29.713Z,13.05
2023-04-20T20:01:58.330Z,12.94
2023-04-20T20:04:25.902Z,13.12
2023-04-20T20:06:55.272Z,13.00
2023-04-20T20:09:24.167Z,13.00
2023-04-20T20:11:52.214Z,13.05
2023-04-20T20:14:20.133Z,13.10
2023-04-20T20:16:48.531Z,12.96
2023-04-20T20:19:16.797Z,13.04
2023-04-20T20:21:44.730Z,12.94
2023-04-20T20:24:13.382Z,12.97
2023-04-20T20:26:41.130Z,12.98
2023-04-20T20:29:08.773Z,12.82
2023-04-20T20:31:36.419Z,12.79
2023-04-20T20:34:03.829Z,12.68
2023-04-20T20:36:31.527Z,12.61
2023-04-20T20:38:58.903Z,12.64
2023-04-20T20:41:28.244Z,12.57
2023-04-20T20:43:55.745Z,12.52
2023-04-20T20:46:23.529Z,12.59
2023-04-20T20:48:50.826Z,12.59
2023-04-20T20:51:18.535Z,12.62
2023-04-20T20:53:45.977Z,12.56
2023-04-20T20:56:13.648Z,12.54
2023-04-20T20:58:43.367Z,12.47
2023-04-20T21:01:11.426Z,12.57
2023-04-20T21:03:39.203Z,12.62
2023-04-20T21:06:07.684Z,12.54
2023-04-20T21:08:35.044Z,12.50
2023-04-20T21:11:02.867Z,12.46
2023-04-20T21:13:30.331Z,12.35
2023-04-20T21:15:59.603Z,12.33
2023-04-20T21:18:26.977Z,12.39
2023-04-20T21:20:54.981Z,12.41
2023-04-20T21:23:22.546Z,12.40
2023-04-20T21:25:50.372Z,12.47
2023-04-20T21:28:17.681Z,12.39
2023-04-20T21:30:45.591Z,12.20
2023-04-20T21:33:14.769Z,12.13
2023-04-20T21:35:42.794Z,12.08
2023-04-20T21:38:10.168Z,12.04
2023-04-20T21:40:37.898Z,11.92
2023-04-20T21:43:05.353Z,11.79
2023-04-20T21:45:33.334Z,11.70
2023-04-20T21:48:00.674Z,11.66
2023-04-20T21:50:30.047Z,11.58
2023-04-20T21:52:57.540Z,11.41
2023-04-20T21:55:25.235Z,11.38
2023-04-20T21:57:52.624Z,11.21
2023-04-20T22:00:20.858Z,11.23
2023-04-20T22:02:50.069Z,11.18
2023-04-20T22:05:18.611Z,11.10
2023-04-20T22:07:47.538Z,11.03
2023-04-20T22:10:15.383Z,10.97
2023-04-20T22:12:42.681Z,10.91
2023-04-20T22:15:12.254Z,10.77
2023-04-20T22:17:40.213Z,10.67
2023-04-20T22:20:10.165Z,10.62
2023-04-20T22:22:38.611Z,10.68
2023-04-20T22:25:09.222Z,10.59
2023-04-20T22:27:36.790Z,10.53
2023-04-20T22:30:05.553Z,10.44
2023-04-20T22:32:33.058Z,10.14
2023-04-20T22:35:00.801Z,9.86
2023-04-20T22:37:28.199Z,9.93
2023-04-20T22:39:55.940Z,9.98
2023-04-20T22:42:24.870Z,9.92
2023-04-20T22:44:52.588Z,10.01
2023-04-20T22:47:19.909Z,9.88
2023-04-20T22:49:47.631Z,9.85
2023-04-20T22:52:15.052Z,9.82
2023-04-20T22:54:42.817Z,9.75
2023-04-20T22:57:10.068Z,9.66
2023-04-20T22:59:39.100Z,9.66
2023-04-20T23:02:06.585Z,9.56
2023-04-20T23:04:34.388Z,9.46
2023-04-20T23:07:01.879Z,9.50
2023-04-20T23:09:29.509Z,9.52
2023-04-20T23:11:56.803Z,9.43
2023-04-20T23:14:24.844Z,9.47
2023-04-20T23:16:54.006Z,9.44
2023-04-20T23:19:21.841Z,9.31
2023-04-20T23:21:49.233Z,9.35
2023-04-20T23:24:17.030Z,9.14
2023-04-20T23:26:44.440Z,9.05
2023-04-20T23:29:12.585Z,9.01
2023-04-20T23:31:39.984Z,8.95
2023-04-20T23:34:09.142Z,8.96
2023-04-20T23:36:36.635Z,8.97
2023-04-20T23:39:04.735Z,9.03
2023-04-20T23:41:32.210Z,8.96
2023-04-20T23:44:00.210Z,8.89
2023-04-20T23:46:27.675Z,8.84
2023-04-20T23:48:55.744Z,8.67
2023-04-20T23:51:24.406Z,8.58
2023-04-20T23:53:52.144Z,8.58
2023-04-20T23:56:19.371Z,8.61
2023-04-20T23:58:47.197Z,8.62
